createdAt,value
2022-12-12T00:01:02.818Z,97183.94
2022-12-12T00:03:31.418Z,97175.69
2022-12-12T00:05:58.481Z,97184.59
2022-12-12T00:08:25.534Z,97174.03
2022-12-12T00:10:52.460Z,97170.41
2022-12-12T00:13:19.359Z,97173.38
2022-12-12T00:15:46.273Z,97179.16
2022-12-12T00:18:13.221Z,97184.47
2022-12-12T00:20:40.123Z,97174.72
2022-12-12T00:23:07.056Z,97182.47
2022-12-12T00:25:33.964Z,97184.00
2022-12-12T00:28:01.036Z,97178.72
2022-12-12T00:30:29.194Z,97181.69
2022-12-12T00:32:56.072Z,97177.88
2022-12-12T00:35:22.983Z,97178.72
2022-12-12T00:37:49.839Z,97186.50
2022-12-12T00:40:16.804Z,97185.50
2022-12-12T00:42:43.715Z,97185.38
2022-12-12T00:45:11.302Z,97188.97
2022-12-12T00:47:38.427Z,97180.38
2022-12-12T00:50:05.804Z,97184.53
2022-12-12T00:52:32.723Z,97186.34
2022-12-12T00:54:59.580Z,97185.38
2022-12-12T00:57:26.547Z,97182.03
2022-12-12T00:59:53.399Z,97187.31
2022-12-12T01:02:26.436Z,97177.56
2022-12-12T01:04:54.910Z,97176.75
2022-12-12T01:07:21.895Z,97174.09
2022-12-12T01:09:48.753Z,97167.00
2022-12-12T01:12:15.853Z,97173.97
2022-12-12T01:14:42.838Z,97168.66
2022-12-12T01:17:09.981Z,97171.44
2022-12-12T01:19:36.909Z,97163.69
2022-12-12T01:22:03.827Z,97173.13
2022-12-12T01:24:31.185Z,97167.00
2022-12-12T01:26:58.378Z,97173.44
2022-12-12T01:29:25.328Z,97175.25
2022-12-12T01:31:52.255Z,97170.09
2022-12-12T01:34:19.189Z,97163.97
2022-12-12T01:36:46.110Z,97167.06
2022-12-12T01:39:13.055Z,97165.44
2022-12-12T01:41:40.063Z,97163.06
2022-12-12T01:44:43.825Z,97161.25
2022-12-12T01:47:13.687Z,97158.78
2022-12-12T01:49:43.573Z,97147.00
2022-12-12T01:52:16.674Z,97153.78
2022-12-12T01:54:49.459Z,97155.06
2022-12-12T01:57:26.125Z,97151.75
2022-12-12T01:59:53.621Z,97163.16
2022-12-12T02:02:20.801Z,97154.41
2022-12-12T02:04:48.214Z,97150.09
2022-12-12T02:07:35.601Z,97155.84
2022-12-12T02:10:25.777Z,97155.13
2022-12-12T02:13:33.504Z,97158.59
2022-12-12T02:16:23.669Z,97159.88
2022-12-12T02:19:39.829Z,97163.50
2022-12-12T02:22:22.065Z,97159.50
2022-12-12T02:25:41.254Z,97162.00
2022-12-12T02:28:28.068Z,97155.88
2022-12-12T02:31:16.493Z,97153.25
2022-12-12T02:33:56.185Z,97148.94
2022-12-12T02:36:41.019Z,97142.69
2022-12-12T02:39:23.415Z,97149.78
2022-12-12T02:41:57.033Z,97150.75
2022-12-12T02:44:30.514Z,97160.47
2022-12-12T02:47:19.527Z,97151.75
2022-12-12T02:49:57.309Z,97148.09
2022-12-12T02:52:25.052Z,97145.63
2022-12-12T02:54:51.968Z,97147.28
2022-12-12T02:57:24.880Z,97155.19
2022-12-12T03:00:18.680Z,97142.81
2022-12-12T03:03:34.613Z,97139.22
2022-12-12T03:07:06.946Z,97152.56
2022-12-12T03:09:54.586Z,97154.53
2022-12-12T03:12:32.139Z,97154.38
2022-12-12T03:15:11.000Z,97153.69
2022-12-12T03:18:19.786Z,97153.84
2022-12-12T03:21:05.039Z,97147.06
2022-12-12T03:23:48.344Z,97154.97
2022-12-12T03:26:17.414Z,97148.84
2022-12-12T03:28:52.664Z,97157.09
2022-12-12T03:31:24.755Z,97150.66
2022-12-12T03:34:02.727Z,97155.81
2022-12-12T03:37:03.279Z,97141.78
2022-12-12T03:39:41.052Z,97156.66
2022-12-12T03:42:19.723Z,97146.91
2022-12-12T03:44:52.949Z,97151.25
2022-12-12T03:47:29.539Z,97155.94
2022-12-12T03:50:19.499Z,97156.78
2022-12-12T03:53:00.248Z,97155.13
2022-12-12T03:55:33.692Z,97152.47
2022-12-12T03:58:09.405Z,97149.84
2022-12-12T04:00:40.618Z,97154.84
2022-12-12T04:03:26.367Z,97148.03
2022-12-12T04:06:18.501Z,97152.19
2022-12-12T04:09:06.471Z,97163.03
2022-12-12T04:12:00.904Z,97149.69
2022-12-12T04:14:51.067Z,97156.25
2022-12-12T04:17:25.052Z,97150.97
2022-12-12T04:20:19.595Z,97154.44
2022-12-12T04:23:18.424Z,97132.22
2022-12-12T04:26:25.313Z,97153.84
2022-12-12T04:29:00.231Z,97146.53
2022-12-12T04:31:31.318Z,97119.66
2022-12-12T04:34:06.262Z,97148.03
2022-12-12T04:36:35.621Z,97148.72
2022-12-12T04:39:05.945Z,97148.56
2022-12-12T04:41:35.311Z,97145.06
2022-12-12T04:44:06.498Z,97152.84
2022-12-12T04:46:34.601Z,97144.78
2022-12-12T04:49:07.975Z,97111.28
2022-12-12T04:51:44.274Z,97138.38
2022-12-12T04:54:23.222Z,97137.84
2022-12-12T04:56:55.557Z,97139.56
2022-12-12T04:59:23.976Z,97139.13
2022-12-12T05:02:14.475Z,97130.38
2022-12-12T05:04:51.823Z,97158.97
2022-12-12T05:07:29.421Z,97137.91
2022-12-12T05:09:58.660Z,97149.38
2022-12-12T05:12:26.859Z,97148.72
2022-12-12T05:14:53.827Z,97146.53
2022-12-12T05:17:28.038Z,97147.88
2022-12-12T05:19:55.955Z,97141.91
2022-12-12T05:22:22.850Z,97127.13
2022-12-12T05:24:49.813Z,97143.97
2022-12-12T05:27:16.814Z,97131.22
2022-12-12T05:29:43.688Z,97140.34
2022-12-12T05:32:10.666Z,97148.28
2022-12-12T05:34:37.633Z,97120.69
2022-12-12T05:37:04.527Z,97145.63
2022-12-12T05:39:31.614Z,97148.09
2022-12-12T05:41:58.556Z,97107.09
2022-12-12T05:44:25.451Z,97152.28
2022-12-12T05:46:52.418Z,97148.28
2022-12-12T05:49:19.313Z,97147.28
2022-12-12T05:51:46.290Z,97150.13
2022-12-12T05:54:13.961Z,97161.75
2022-12-12T05:56:40.909Z,97168.72
2022-12-12T05:59:07.943Z,97164.78
2022-12-12T06:01:35.137Z,97166.47
2022-12-12T06:04:02.107Z,97174.38
2022-12-12T06:06:29.294Z,97168.56
2022-12-12T06:08:56.242Z,97167.16
2022-12-12T06:11:23.820Z,97170.97
2022-12-12T06:13:50.924Z,97175.66
2022-12-12T06:16:19.465Z,97179.53
2022-12-12T06:18:54.010Z,97180.34
2022-12-12T06:21:22.260Z,97181.78
2022-12-12T06:23:49.833Z,97183.00
2022-12-12T06:26:18.271Z,97180.06
2022-12-12T06:28:45.572Z,97188.50
2022-12-12T06:31:12.655Z,97183.09
2022-12-12T06:33:43.671Z,97187.00
2022-12-12T06:36:24.195Z,97194.50
2022-12-12T06:38:56.229Z,97196.69
2022-12-12T06:41:25.169Z,97194.56
2022-12-12T06:43:52.446Z,97181.09
2022-12-12T06:46:34.999Z,97188.97
2022-12-12T06:49:01.980Z,97200.50
2022-12-12T06:51:36.665Z,97200.59
2022-12-12T06:54:03.662Z,97194.50
2022-12-12T06:56:31.130Z,97195.00
2022-12-12T06:58:59.813Z,97202.09
2022-12-12T07:01:26.816Z,97196.38
2022-12-12T07:03:54.081Z,97196.38
2022-12-12T07:06:23.434Z,97195.31
2022-12-12T07:08:51.987Z,97192.13
2022-12-12T07:11:23.334Z,97202.13
2022-12-12T07:13:50.976Z,97203.16
2022-12-12T07:16:21.057Z,97195.09
2022-12-12T07:18:48.640Z,97209.00
2022-12-12T07:21:18.272Z,97202.97
2022-12-12T07:23:45.537Z,97179.16
2022-12-12T07:26:19.253Z,97209.16
2022-12-12T07:28:46.609Z,97208.25
2022-12-12T07:31:17.601Z,97210.75
2022-12-12T07:33:45.390Z,97217.47
2022-12-12T07:36:14.720Z,97202.75
2022-12-12T07:38:42.018Z,97211.34
2022-12-12T07:41:12.680Z,97214.69
2022-12-12T07:43:44.263Z,97204.00
2022-12-12T07:46:15.262Z,97211.59
2022-12-12T07:48:42.731Z,97214.28
2022-12-12T07:51:09.771Z,97210.69
2022-12-12T07:53:36.714Z,97210.44
2022-12-12T07:56:08.519Z,97212.09
2022-12-12T07:58:36.190Z,97210.88
2022-12-12T08:01:14.699Z,97197.50
2022-12-12T08:03:43.340Z,97215.69
2022-12-12T08:06:10.559Z,97211.09
2022-12-12T08:08:37.883Z,97226.53
2022-12-12T08:11:06.648Z,97223.63
2022-12-12T08:13:35.629Z,97222.31
2022-12-12T08:16:02.659Z,97227.63
2022-12-12T08:18:29.800Z,97224.72
2022-12-12T08:20:56.819Z,97226.19
2022-12-12T08:23:23.762Z,97231.38
2022-12-12T08:25:50.734Z,97232.34
2022-12-12T08:28:17.702Z,97223.84
2022-12-12T08:30:49.505Z,97233.34
2022-12-12T08:33:16.456Z,97223.13
2022-12-12T08:35:43.362Z,97221.81
2022-12-12T08:38:10.281Z,97227.47
2022-12-12T08:40:37.204Z,97222.56
2022-12-12T08:43:04.133Z,97229.41
2022-12-12T08:45:31.069Z,97226.19
2022-12-12T08:47:58.984Z,97226.28
2022-12-12T08:50:26.527Z,97238.97
2022-12-12T08:52:53.443Z,97232.63
2022-12-12T08:55:20.724Z,97224.69
2022-12-12T08:57:47.809Z,97227.41
2022-12-12T09:00:15.406Z,97228.94
2022-12-12T09:02:42.635Z,97230.31
2022-12-12T09:05:10.842Z,97235.84
2022-12-12T09:07:38.139Z,97227.69
2022-12-12T09:10:05.563Z,97224.69
2022-12-12T09:12:35.674Z,97232.41
2022-12-12T09:15:07.585Z,97238.41
2022-12-12T09:17:34.588Z,97239.25
2022-12-12T09:20:01.518Z,97234.53
2022-12-12T09:22:28.455Z,97225.03
2022-12-12T09:24:55.462Z,97229.03
2022-12-12T09:27:22.354Z,97236.88
2022-12-12T09:29:49.309Z,97235.59
2022-12-12T09:32:19.953Z,97235.16
2022-12-12T09:34:51.491Z,97230.00
2022-12-12T09:37:18.496Z,97231.00
2022-12-12T09:39:45.516Z,97232.03
2022-12-12T09:42:21.695Z,97221.63
2022-12-12T09:44:50.193Z,97222.75
2022-12-12T09:47:22.453Z,97236.38
2022-12-12T09:49:56.336Z,97226.50
2022-12-12T09:52:31.755Z,97231.47
2022-12-12T09:55:08.613Z,97231.13
2022-12-12T09:58:00.141Z,97229.94
2022-12-12T10:00:29.298Z,97229.94
2022-12-12T10:03:17.593Z,97235.06
2022-12-12T10:09:07.840Z,97235.06
2022-12-12T10:11:53.203Z,97238.44
2022-12-12T10:14:45.747Z,97239.50
2022-12-12T10:17:21.064Z,97242.56
2022-12-12T10:19:54.671Z,97239.59
2022-12-12T10:23:02.002Z,97233.13
2022-12-12T10:25:32.800Z,97233.91
2022-12-12T10:28:10.104Z,97238.84
2022-12-12T10:31:02.335Z,97238.66
2022-12-12T10:33:48.418Z,97227.53
2022-12-12T10:36:30.244Z,97222.66
2022-12-12T10:39:34.650Z,97227.06
2022-12-12T10:42:15.575Z,97229.19
2022-12-12T10:45:13.603Z,97229.88
2022-12-12T10:47:40.815Z,97228.59
2022-12-12T10:50:13.297Z,97224.47
2022-12-12T10:52:40.995Z,97224.84
2022-12-12T10:55:57.569Z,97225.25
2022-12-12T10:58:36.852Z,97225.09
2022-12-12T11:01:11.534Z,97225.94
2022-12-12T11:03:57.799Z,97229.63
2022-12-12T11:06:36.349Z,97223.94
2022-12-12T11:09:18.364Z,97225.63
2022-12-12T11:12:03.571Z,97223.09
2022-12-12T11:14:40.320Z,97219.69
2022-12-12T11:17:20.522Z,97215.56
2022-12-12T11:19:47.637Z,97218.03
2022-12-12T11:22:15.024Z,97212.41
2022-12-12T11:24:48.381Z,97212.75
2022-12-12T11:27:23.197Z,97211.09
2022-12-12T11:29:58.594Z,97213.53
2022-12-12T11:32:47.787Z,97216.06
2022-12-12T11:35:29.759Z,97218.53
2022-12-12T11:38:01.992Z,97215.09
2022-12-12T11:40:33.373Z,97219.25
2022-12-12T11:43:27.784Z,97218.78
2022-12-12T11:46:19.085Z,97219.63
2022-12-12T11:48:51.989Z,97215.81
2022-12-12T11:51:44.642Z,97224.56
2022-12-12T11:54:15.447Z,97224.22
2022-12-12T11:56:47.505Z,97236.22
2022-12-12T11:59:23.693Z,97229.44
2022-12-12T12:02:03.997Z,97225.50
2022-12-12T12:04:39.824Z,97236.63
2022-12-12T12:07:18.950Z,97230.09
2022-12-12T12:10:02.237Z,97227.97
2022-12-12T12:12:49.843Z,97238.41
2022-12-12T12:15:46.051Z,97239.31
2022-12-12T12:18:36.200Z,97238.56
2022-12-12T12:21:18.351Z,97240.44
2022-12-12T12:24:00.387Z,97245.63
2022-12-12T12:27:04.353Z,97243.53
2022-12-12T12:29:43.381Z,97247.72
2022-12-12T12:32:29.885Z,97249.84
2022-12-12T12:34:56.832Z,97250.09
2022-12-12T12:37:44.305Z,97247.88
2022-12-12T12:40:14.295Z,97250.56
2022-12-12T12:42:57.447Z,97244.91
2022-12-12T12:45:42.791Z,97246.53
2022-12-12T12:48:22.888Z,97245.06
2022-12-12T12:51:09.138Z,97245.28
2022-12-12T12:53:43.856Z,97248.25
2022-12-12T12:56:30.196Z,97238.13
2022-12-12T12:59:04.670Z,97253.59
2022-12-12T13:01:39.276Z,97255.06
2022-12-12T13:04:13.504Z,97247.22
2022-12-12T13:06:43.535Z,97255.31
2022-12-12T13:09:13.033Z,97263.91
2022-12-12T13:11:44.836Z,97260.25
2022-12-12T13:14:37.686Z,97264.19
2022-12-12T13:17:08.124Z,97271.03
2022-12-12T13:19:43.215Z,97264.06
2022-12-12T13:22:23.809Z,97260.09
2022-12-12T13:25:01.516Z,97265.13
2022-12-12T13:27:34.991Z,97269.84
2022-12-12T13:30:22.925Z,97270.56
2022-12-12T13:33:08.219Z,97273.72
2022-12-12T13:35:51.382Z,97280.97
2022-12-12T13:38:30.957Z,97278.13
2022-12-12T13:41:03.377Z,97285.53
2022-12-12T13:43:33.335Z,97283.25
2022-12-12T13:46:29.415Z,97293.44
2022-12-12T13:49:03.013Z,97292.00
2022-12-12T13:51:34.895Z,97293.81
2022-12-12T13:54:12.583Z,97300.41
2022-12-12T13:56:43.717Z,97301.63
2022-12-12T13:59:22.600Z,97304.94
2022-12-12T14:02:01.346Z,97300.31
2022-12-12T14:04:31.479Z,97302.59
2022-12-12T14:07:17.053Z,97309.63
2022-12-12T14:09:49.360Z,97294.50
2022-12-12T14:12:32.094Z,97303.69
2022-12-12T14:15:21.065Z,97322.84
2022-12-12T14:17:59.549Z,97317.94
2022-12-12T14:20:39.775Z,97321.50
2022-12-12T14:23:20.848Z,97313.34
2022-12-12T14:25:47.780Z,97323.63
2022-12-12T14:28:19.206Z,97325.44
2022-12-12T14:30:52.674Z,97318.19
2022-12-12T14:33:50.336Z,97317.34
2022-12-12T14:36:19.945Z,97319.88
2022-12-12T14:39:02.011Z,97318.03
2022-12-12T14:41:38.189Z,97324.09
2022-12-12T14:44:36.741Z,97326.06
2022-12-12T14:47:08.077Z,97313.75
2022-12-12T14:49:35.070Z,97329.00
2022-12-12T14:52:02.366Z,97320.53
2022-12-12T14:54:31.129Z,97336.34
2022-12-12T14:56:59.621Z,97341.66
2022-12-12T14:59:31.552Z,97336.03
2022-12-12T15:02:26.514Z,97343.97
2022-12-12T15:05:04.950Z,97342.84
2022-12-12T15:07:38.656Z,97346.63
2022-12-12T15:10:27.728Z,97346.94
2022-12-12T15:12:54.675Z,97357.53
2022-12-12T15:15:31.398Z,97352.25
2022-12-12T15:18:01.146Z,97360.03
2022-12-12T15:20:32.624Z,97357.66
2022-12-12T15:23:02.665Z,97366.97
2022-12-12T15:25:33.191Z,97373.78
2022-12-12T15:28:01.749Z,97356.31
2022-12-12T15:30:39.734Z,97366.75
2022-12-12T15:33:15.424Z,97365.59
2022-12-12T15:35:50.319Z,97353.91
2022-12-12T15:38:17.627Z,97361.22
2022-12-12T15:40:50.584Z,97365.22
2022-12-12T15:43:26.085Z,97357.59
2022-12-12T15:46:02.843Z,97373.03
2022-12-12T15:48:29.757Z,97362.06
2022-12-12T15:51:03.646Z,97372.56
2022-12-12T15:53:34.329Z,97372.56
2022-12-12T15:56:14.523Z,97374.44
2022-12-12T15:58:47.284Z,97375.50
2022-12-12T16:01:20.360Z,97377.75
2022-12-12T16:04:23.390Z,97390.44
2022-12-12T16:06:50.727Z,97380.81
2022-12-12T16:09:26.490Z,97390.16
2022-12-12T16:11:54.258Z,97394.50
2022-12-12T16:14:33.954Z,97398.50
2022-12-12T16:17:20.656Z,97395.69
2022-12-12T16:19:52.622Z,97394.53
2022-12-12T16:22:38.253Z,97391.56
2022-12-12T16:25:27.066Z,97397.19
2022-12-12T16:28:06.290Z,97389.38
2022-12-12T16:30:33.740Z,97399.06
2022-12-12T16:33:26.085Z,97403.75
2022-12-12T16:35:53.272Z,97403.97
2022-12-12T16:38:20.366Z,97410.94
2022-12-12T16:40:50.741Z,97405.72
2022-12-12T16:43:21.551Z,97400.72
2022-12-12T16:45:53.403Z,97399.13
2022-12-12T16:48:26.142Z,97416.03
2022-12-12T16:50:57.581Z,97418.53
2022-12-12T16:53:24.556Z,97401.09
2022-12-12T16:55:52.491Z,97417.38
2022-12-12T16:58:21.471Z,97417.13
2022-12-12T17:00:49.781Z,97418.28
2022-12-12T17:03:17.637Z,97426.28
2022-12-12T17:05:46.626Z,97419.00
2022-12-12T17:08:16.329Z,97430.47
2022-12-12T17:10:45.431Z,97435.22
2022-12-12T17:13:21.308Z,97431.59
2022-12-12T17:15:48.234Z,97435.69
2022-12-12T17:18:15.153Z,97441.81
2022-12-12T17:20:43.324Z,97438.19
2022-12-12T17:23:29.184Z,97443.34
2022-12-12T17:26:02.936Z,97450.34
2022-12-12T17:28:31.131Z,97443.34
2022-12-12T17:30:58.174Z,97452.81
2022-12-12T17:33:27.676Z,97445.53
2022-12-12T17:36:04.083Z,97448.19
2022-12-12T17:38:31.137Z,97453.63
2022-12-12T17:41:02.205Z,97446.47
2022-12-12T17:43:29.151Z,97443.97
2022-12-12T17:46:07.552Z,97453.22
2022-12-12T17:48:36.391Z,97458.44
2022-12-12T17:51:05.754Z,97467.22
2022-12-12T17:53:38.486Z,97463.03
2022-12-12T17:56:07.760Z,97466.84
2022-12-12T17:58:43.682Z,97458.66
2022-12-12T18:01:18.602Z,97468.78
2022-12-12T18:03:46.228Z,97461.84
2022-12-12T18:06:14.567Z,97467.66
2022-12-12T18:08:41.947Z,97470.00
2022-12-12T18:11:13.000Z,97475.75
2022-12-12T18:13:41.257Z,97487.56
2022-12-12T18:16:10.474Z,97476.38
2022-12-12T18:18:38.081Z,97493.66
2022-12-12T18:21:10.521Z,97484.56
2022-12-12T18:23:39.754Z,97492.19
2022-12-12T18:26:09.953Z,97494.78
2022-12-12T18:28:37.430Z,97500.66
2022-12-12T18:31:06.019Z,97480.84
2022-12-12T18:33:33.683Z,97487.06
2022-12-12T18:36:18.644Z,97502.28
2022-12-12T18:38:47.907Z,97511.28
2022-12-12T18:41:16.230Z,97507.97
2022-12-12T18:43:43.678Z,97504.41
2022-12-12T18:46:16.959Z,97513.19
2022-12-12T18:48:47.105Z,97521.22
2022-12-12T18:51:25.377Z,97525.34
2022-12-12T18:54:02.956Z,97519.38
2022-12-12T18:56:31.630Z,97520.22
2022-12-12T18:59:02.816Z,97528.38
2022-12-12T19:01:34.692Z,97528.84
2022-12-12T19:04:10.491Z,97542.59
2022-12-12T19:06:38.699Z,97534.84
2022-12-12T19:09:14.976Z,97548.00
2022-12-12T19:11:42.896Z,97552.03
2022-12-12T19:14:12.682Z,97566.00
2022-12-12T19:16:40.901Z,97558.81
2022-12-12T19:19:11.353Z,97553.03
2022-12-12T19:21:38.952Z,97567.22
2022-12-12T19:24:09.466Z,97579.31
2022-12-12T19:26:37.525Z,97561.91
2022-12-12T19:29:07.878Z,97573.81
2022-12-12T19:31:41.550Z,97577.44
2022-12-12T19:34:12.936Z,97555.94
2022-12-12T19:36:43.790Z,97566.75
2022-12-12T19:39:17.679Z,97570.38
2022-12-12T19:41:45.095Z,97587.19
2022-12-12T19:44:13.689Z,97591.97
2022-12-12T19:46:44.718Z,97584.59
2022-12-12T19:49:13.905Z,97592.84
2022-12-12T19:51:42.907Z,97598.16
2022-12-12T19:54:14.667Z,97604.16
2022-12-12T19:56:42.454Z,97599.44
2022-12-12T19:59:12.688Z,97603.38
2022-12-12T20:01:40.709Z,97613.00
2022-12-12T20:04:23.259Z,97606.59
2022-12-12T20:06:57.826Z,97596.31
2022-12-12T20:09:29.534Z,97618.50
2022-12-12T20:12:03.041Z,97618.41
2022-12-12T20:14:36.202Z,97620.94
2022-12-12T20:17:05.815Z,97628.47
2022-12-12T20:19:39.225Z,97627.06
2022-12-12T20:22:07.626Z,97622.59
2022-12-12T20:24:35.874Z,97633.38
2022-12-12T20:27:09.328Z,97644.72
2022-12-12T20:29:38.484Z,97628.81
2022-12-12T20:32:06.991Z,97634.66
2022-12-12T20:34:33.958Z,97628.38
2022-12-12T20:37:00.968Z,97621.31
2022-12-12T20:39:39.715Z,97645.13
2022-12-12T20:42:07.226Z,97643.72
2022-12-12T20:44:34.447Z,97644.00
2022-12-12T20:47:03.131Z,97645.97
2022-12-12T20:49:30.520Z,97643.09
2022-12-12T20:51:58.759Z,97661.03
2022-12-12T20:54:28.457Z,97661.50
2022-12-12T20:56:56.132Z,97660.53
2022-12-12T20:59:24.060Z,97649.41
2022-12-12T21:01:51.708Z,97680.88
2022-12-12T21:04:18.774Z,97673.06
2022-12-12T21:06:50.170Z,97682.81
2022-12-12T21:09:23.703Z,97683.25
2022-12-12T21:11:53.878Z,97684.22
2022-12-12T21:14:20.973Z,97687.84
2022-12-12T21:16:47.998Z,97693.41
2022-12-12T21:19:15.872Z,97698.69
2022-12-12T21:21:43.806Z,97684.38
2022-12-12T21:24:15.654Z,97694.56
2022-12-12T21:26:43.145Z,97697.88
2022-12-12T21:29:10.193Z,97701.66
2022-12-12T21:31:43.413Z,97706.41
2022-12-12T21:34:13.797Z,97705.13
2022-12-12T21:36:40.738Z,97718.25
2022-12-12T21:39:07.971Z,97724.63
2022-12-12T21:41:35.565Z,97729.38
2022-12-12T21:44:02.665Z,97728.00
2022-12-12T21:46:31.395Z,97728.53
2022-12-12T21:49:17.310Z,97728.84
2022-12-12T21:51:44.532Z,97736.06
2022-12-12T21:54:13.950Z,97737.88
2022-12-12T21:56:41.566Z,97737.19
2022-12-12T21:59:10.039Z,97736.91
2022-12-12T22:01:37.735Z,97741.94
2022-12-12T22:04:05.151Z,97748.03
2022-12-12T22:06:35.025Z,97738.88
2022-12-12T22:09:05.911Z,97733.56
2022-12-12T22:11:40.984Z,97746.66
2022-12-12T22:14:17.853Z,97746.94
2022-12-12T22:16:45.171Z,97756.25
2022-12-12T22:19:14.191Z,97759.72
2022-12-12T22:21:41.681Z,97755.16
2022-12-12T22:24:09.009Z,97757.34
2022-12-12T22:26:40.157Z,97762.53
2022-12-12T22:29:11.099Z,97762.25
2022-12-12T22:31:39.676Z,97751.63
2022-12-12T22:34:10.797Z,97765.59
2022-12-12T22:36:39.199Z,97762.94
2022-12-12T22:39:08.418Z,97774.19
2022-12-12T22:41:35.456Z,97774.09
2022-12-12T22:44:06.517Z,97756.41
2022-12-12T22:46:36.984Z,97770.88
2022-12-12T22:49:06.257Z,97774.91
2022-12-12T22:51:34.325Z,97786.16
2022-12-12T22:54:04.203Z,97776.25
2022-12-12T22:56:33.396Z,97785.47
2022-12-12T22:59:00.553Z,97782.25
2022-12-12T23:01:28.828Z,97798.13
2022-12-12T23:03:56.392Z,97800.91
2022-12-12T23:06:30.458Z,97801.19
2022-12-12T23:08:59.767Z,97805.88
2022-12-12T23:11:29.089Z,97785.44
2022-12-12T23:14:00.856Z,97809.75
2022-12-12T23:16:30.984Z,97804.50
2022-12-12T23:18:59.020Z,97803.50
2022-12-12T23:21:27.037Z,97807.84
2022-12-12T23:23:54.977Z,97801.56
2022-12-12T23:26:24.901Z,97809.34
2022-12-12T23:28:51.968Z,97816.88
2022-12-12T23:31:28.157Z,97813.41
2022-12-12T23:33:57.122Z,97813.13
2022-12-12T23:36:24.959Z,97809.91
2022-12-12T23:38:55.961Z,97814.06
2022-12-12T23:41:23.251Z,97815.25
2022-12-12T23:43:51.294Z,97798.72
2022-12-12T23:46:32.464Z,97811.66
2022-12-12T23:49:08.336Z,97816.13
2022-12-12T23:51:40.929Z,97814.22
2022-12-12T23:54:11.597Z,97818.09
2022-12-12T23:56:40.143Z,97811.72
2022-12-12T23:59:07.197Z,97820.34
